sensor_id;sensor_type;location;lat;lon;timestamp;pressure;altitude;pressure_sealevel;temperature;humidity
71917;BME280;59793;46.506;6.674;2022-11-14T00:02:13;97199.28;;;9.60;81.23
71917;BME280;59793;46.506;6.674;2022-11-14T00:04:41;97190.16;;;9.57;81.32
71917;BME280;59793;46.506;6.674;2022-11-14T00:07:06;97202.13;;;9.67;80.80
71917;BME280;59793;46.506;6.674;2022-11-14T00:09:31;97189.84;;;9.71;80.48
71917;BME280;59793;46.506;6.674;2022-11-14T00:11:56;97198.03;;;9.81;80.11
71917;BME280;59793;46.506;6.674;2022-11-14T00:14:21;97203.19;;;9.90;79.53
71917;BME280;59793;46.506;6.674;2022-11-14T00:16:47;97200.56;;;9.90;79.54
71917;BME280;59793;46.506;6.674;2022-11-14T00:19:12;97198.56;;;9.99;79.07
71917;BME280;59793;46.506;6.674;2022-11-14T00:21:37;97195.06;;;9.95;79.27
71917;BME280;59793;46.506;6.674;2022-11-14T00:24:03;97189.78;;;9.95;79.15
71917;BME280;59793;46.506;6.674;2022-11-14T00:26:28;97194.41;;;9.98;78.92
71917;BME280;59793;46.506;6.674;2022-11-14T00:28:53;97190.66;;;9.99;78.56
71917;BME280;59793;46.506;6.674;2022-11-14T00:31:19;97187.81;;;10.04;78.33
71917;BME280;59793;46.506;6.674;2022-11-14T00:33:44;97182.34;;;9.97;78.32
71917;BME280;59793;46.506;6.674;2022-11-14T00:36:09;97182.16;;;9.90;78.85
71917;BME280;59793;46.506;6.674;2022-11-14T00:38:34;97174.25;;;9.90;79.26
71917;BME280;59793;46.506;6.674;2022-11-14T00:41:00;97174.78;;;9.96;79.87
71917;BME280;59793;46.506;6.674;2022-11-14T00:43:25;97174.66;;;10.04;80.17
71917;BME280;59793;46.506;6.674;2022-11-14T00:45:50;97184.28;;;10.13;80.43
71917;BME280;59793;46.506;6.674;2022-11-14T00:48:15;97168.56;;;10.16;80.37
71917;BME280;59793;46.506;6.674;2022-11-14T00:50:41;97172.06;;;10.20;80.67
71917;BME280;59793;46.506;6.674;2022-11-14T00:53:06;97168.13;;;10.26;80.68
71917;BME280;59793;46.506;6.674;2022-11-14T00:55:32;97161.44;;;10.29;80.63
71917;BME280;59793;46.506;6.674;2022-11-14T00:57:57;97165.59;;;10.30;80.81
71917;BME280;59793;46.506;6.674;2022-11-14T01:00:22;97168.91;;;10.27;80.77
71917;BME280;59793;46.506;6.674;2022-11-14T01:02:47;97173.31;;;10.11;81.42
71917;BME280;59793;46.506;6.674;2022-11-14T01:05:13;97165.72;;;10.21;81.01
71917;BME280;59793;46.506;6.674;2022-11-14T01:07:38;97172.41;;;10.19;81.23
71917;BME280;59793;46.506;6.674;2022-11-14T01:10:03;97166.28;;;10.15;81.39
71917;BME280;59793;46.506;6.674;2022-11-14T01:12:29;97161.16;;;10.06;81.38
71917;BME280;59793;46.506;6.674;2022-11-14T01:14:54;97153.81;;;9.99;81.06
71917;BME280;59793;46.506;6.674;2022-11-14T01:17:19;97166.56;;;9.97;81.43
71917;BME280;59793;46.506;6.674;2022-11-14T01:19:44;97160.13;;;9.82;81.64
71917;BME280;59793;46.506;6.674;2022-11-14T01:22:09;97164.50;;;9.78;81.69
71917;BME280;59793;46.506;6.674;2022-11-14T01:24:35;97171.41;;;9.83;81.37
71917;BME280;59793;46.506;6.674;2022-11-14T01:27:00;97162.88;;;9.86;81.36
71917;BME280;59793;46.506;6.674;2022-11-14T01:29:25;97165.72;;;9.81;81.84
71917;BME280;59793;46.506;6.674;2022-11-14T01:31:50;97159.75;;;9.96;81.34
71917;BME280;59793;46.506;6.674;2022-11-14T01:34:16;97149.75;;;10.02;81.41
71917;BME280;59793;46.506;6.674;2022-11-14T01:36:41;97158.63;;;10.10;80.78
71917;BME280;59793;46.506;6.674;2022-11-14T01:39:06;97156.31;;;10.08;81.46
71917;BME280;59793;46.506;6.674;2022-11-14T01:41:31;97159.63;;;10.05;81.39
71917;BME280;59793;46.506;6.674;2022-11-14T01:43:57;97149.94;;;10.09;81.59
71917;BME280;59793;46.506;6.674;2022-11-14T01:46:23;97148.19;;;10.13;81.42
71917;BME280;59793;46.506;6.674;2022-11-14T01:49:04;97139.09;;;10.11;81.40
71917;BME280;59793;46.506;6.674;2022-11-14T01:51:35;97132.84;;;10.03;81.47
71917;BME280;59793;46.506;6.674;2022-11-14T01:54:03;97126.72;;;9.99;81.62
71917;BME280;59793;46.506;6.674;2022-11-14T01:56:34;97132.19;;;10.06;80.85
71917;BME280;59793;46.506;6.674;2022-11-14T01:59:02;97125.41;;;10.05;80.59
71917;BME280;59793;46.506;6.674;2022-11-14T02:01:30;97129.44;;;9.74;80.99
71917;BME280;59793;46.506;6.674;2022-11-14T02:03:56;97124.53;;;9.61;82.46
71917;BME280;59793;46.506;6.674;2022-11-14T02:06:24;97124.09;;;9.58;82.51
71917;BME280;59793;46.506;6.674;2022-11-14T02:08:51;97118.59;;;9.64;82.35
71917;BME280;59793;46.506;6.674;2022-11-14T02:11:16;97115.50;;;9.74;81.83
71917;BME280;59793;46.506;6.674;2022-11-14T02:13:41;97117.34;;;9.86;81.68
71917;BME280;59793;46.506;6.674;2022-11-14T02:16:07;97112.28;;;9.93;81.46
71917;BME280;59793;46.506;6.674;2022-11-14T02:18:32;97114.34;;;9.99;81.15
71917;BME280;59793;46.506;6.674;2022-11-14T02:20:57;97108.66;;;9.97;81.41
71917;BME280;59793;46.506;6.674;2022-11-14T02:23:23;97110.38;;;10.05;80.82
71917;BME280;59793;46.506;6.674;2022-11-14T02:25:49;97105.66;;;10.11;80.33
71917;BME280;59793;46.506;6.674;2022-11-14T02:28:14;97103.44;;;10.13;80.58
71917;BME280;59793;46.506;6.674;2022-11-14T02:30:39;97114.06;;;10.17;80.11
71917;BME280;59793;46.506;6.674;2022-11-14T02:33:05;97110.09;;;10.23;79.77
71917;BME280;59793;46.506;6.674;2022-11-14T02:35:30;97107.91;;;10.25;80.08
71917;BME280;59793;46.506;6.674;2022-11-14T02:37:55;97104.63;;;10.16;80.47
71917;BME280;59793;46.506;6.674;2022-11-14T02:40:20;97103.09;;;10.15;80.84
71917;BME280;59793;46.506;6.674;2022-11-14T02:42:46;97112.81;;;9.98;81.68
71917;BME280;59793;46.506;6.674;2022-11-14T02:45:11;97105.34;;;10.00;81.62
71917;BME280;59793;46.506;6.674;2022-11-14T02:47:36;97105.78;;;10.02;81.80
71917;BME280;59793;46.506;6.674;2022-11-14T02:50:02;97098.50;;;10.12;81.49
71917;BME280;59793;46.506;6.674;2022-11-14T02:52:27;97103.97;;;10.19;81.11
71917;BME280;59793;46.506;6.674;2022-11-14T02:54:52;97100.47;;;10.15;80.77
71917;BME280;59793;46.506;6.674;2022-11-14T02:57:17;97102.63;;;10.25;80.64
71917;BME280;59793;46.506;6.674;2022-11-14T02:59:42;97105.56;;;10.36;80.42
71917;BME280;59793;46.506;6.674;2022-11-14T03:02:08;97099.84;;;10.34;80.44
71917;BME280;59793;46.506;6.674;2022-11-14T03:04:33;97096.56;;;10.37;80.58
71917;BME280;59793;46.506;6.674;2022-11-14T03:06:58;97092.91;;;10.41;80.35
71917;BME280;59793;46.506;6.674;2022-11-14T03:09:23;97087.22;;;10.39;80.55
71917;BME280;59793;46.506;6.674;2022-11-14T03:11:48;97093.06;;;10.48;80.52
71917;BME280;59793;46.506;6.674;2022-11-14T03:14:14;97087.66;;;10.57;80.37
71917;BME280;59793;46.506;6.674;2022-11-14T03:16:39;97085.34;;;10.56;80.23
71917;BME280;59793;46.506;6.674;2022-11-14T03:19:04;97087.22;;;10.55;80.16
71917;BME280;59793;46.506;6.674;2022-11-14T03:21:29;97092.41;;;10.51;80.74
71917;BME280;59793;46.506;6.674;2022-11-14T03:23:55;97096.66;;;10.56;80.66
71917;BME280;59793;46.506;6.674;2022-11-14T03:26:20;97103.63;;;10.48;80.94
71917;BME280;59793;46.506;6.674;2022-11-14T03:28:45;97112.34;;;10.37;81.38
71917;BME280;59793;46.506;6.674;2022-11-14T03:31:11;97114.06;;;10.45;80.82
71917;BME280;59793;46.506;6.674;2022-11-14T03:33:37;97108.56;;;10.50;81.00
71917;BME280;59793;46.506;6.674;2022-11-14T03:36:03;97097.31;;;10.37;80.98
71917;BME280;59793;46.506;6.674;2022-11-14T03:38:29;97091.91;;;10.46;80.74
71917;BME280;59793;46.506;6.674;2022-11-14T03:40:56;97094.38;;;10.55;80.44
71917;BME280;59793;46.506;6.674;2022-11-14T03:43:21;97081.47;;;10.49;80.58
71917;BME280;59793;46.506;6.674;2022-11-14T03:45:47;97088.84;;;10.60;80.37
71917;BME280;59793;46.506;6.674;2022-11-14T03:48:12;97093.00;;;10.76;80.39
71917;BME280;59793;46.506;6.674;2022-11-14T03:50:38;97093.19;;;10.68;79.51
71917;BME280;59793;46.506;6.674;2022-11-14T03:53:03;97088.44;;;10.58;80.75
71917;BME280;59793;46.506;6.674;2022-11-14T03:55:29;97090.28;;;10.57;80.92
71917;BME280;59793;46.506;6.674;2022-11-14T03:57:54;97089.63;;;10.60;80.73
71917;BME280;59793;46.506;6.674;2022-11-14T04:00:19;97091.47;;;10.60;81.22
71917;BME280;59793;46.506;6.674;2022-11-14T04:02:44;97092.94;;;10.57;80.89
71917;BME280;59793;46.506;6.674;2022-11-14T04:05:10;97089.38;;;10.65;80.78
71917;BME280;59793;46.506;6.674;2022-11-14T04:07:35;97097.78;;;10.71;80.33
71917;BME280;59793;46.506;6.674;2022-11-14T04:10:01;97106.72;;;10.82;79.73
71917;BME280;59793;46.506;6.674;2022-11-14T04:12:26;97095.91;;;10.87;79.67
71917;BME280;59793;46.506;6.674;2022-11-14T04:14:51;97105.75;;;10.90;79.75
71917;BME280;59793;46.506;6.674;2022-11-14T04:17:16;97099.91;;;10.97;79.63
71917;BME280;59793;46.506;6.674;2022-11-14T04:19:42;97091.22;;;10.96;79.59
71917;BME280;59793;46.506;6.674;2022-11-14T04:22:07;97100.50;;;10.90;80.02
71917;BME280;59793;46.506;6.674;2022-11-14T04:24:32;97093.88;;;10.96;79.84
71917;BME280;59793;46.506;6.674;2022-11-14T04:26:57;97094.63;;;10.97;79.14
71917;BME280;59793;46.506;6.674;2022-11-14T04:29:22;97090.56;;;10.99;78.90
71917;BME280;59793;46.506;6.674;2022-11-14T04:31:48;97099.97;;;11.00;78.56
71917;BME280;59793;46.506;6.674;2022-11-14T04:34:13;97104.13;;;11.01;79.57
71917;BME280;59793;46.506;6.674;2022-11-14T04:36:38;97101.78;;;10.96;80.47
71917;BME280;59793;46.506;6.674;2022-11-14T04:39:03;97096.50;;;10.81;81.51
71917;BME280;59793;46.506;6.674;2022-11-14T04:41:29;97099.56;;;10.83;81.02
71917;BME280;59793;46.506;6.674;2022-11-14T04:43:54;97094.38;;;10.86;80.28
71917;BME280;59793;46.506;6.674;2022-11-14T04:46:19;97101.34;;;10.94;79.42
71917;BME280;59793;46.506;6.674;2022-11-14T04:48:44;97104.41;;;10.96;80.71
71917;BME280;59793;46.506;6.674;2022-11-14T04:51:10;97101.09;;;10.84;81.10
71917;BME280;59793;46.506;6.674;2022-11-14T04:53:35;97100.31;;;10.83;80.93
71917;BME280;59793;46.506;6.674;2022-11-14T04:56:00;97102.53;;;10.81;80.53
71917;BME280;59793;46.506;6.674;2022-11-14T04:58:25;97098.88;;;10.86;79.87
71917;BME280;59793;46.506;6.674;2022-11-14T05:00:51;97093.03;;;10.92;78.66
71917;BME280;59793;46.506;6.674;2022-11-14T05:03:16;97102.88;;;10.95;78.50
71917;BME280;59793;46.506;6.674;2022-11-14T05:05:41;97100.69;;;10.82;80.59
71917;BME280;59793;46.506;6.674;2022-11-14T05:08:07;97100.41;;;10.87;81.39
71917;BME280;59793;46.506;6.674;2022-11-14T05:10:32;97105.69;;;10.87;81.29
71917;BME280;59793;46.506;6.674;2022-11-14T05:12:57;97092.78;;;10.82;81.03
71917;BME280;59793;46.506;6.674;2022-11-14T05:15:22;97106.28;;;10.80;80.28
71917;BME280;59793;46.506;6.674;2022-11-14T05:17:47;97099.53;;;10.98;70.23
71917;BME280;59793;46.506;6.674;2022-11-14T05:20:13;97111.97;;;11.14;71.66
71917;BME280;59793;46.506;6.674;2022-11-14T05:22:38;97100.75;;;11.17;72.25
71917;BME280;59793;46.506;6.674;2022-11-14T05:25:04;97104.31;;;11.24;72.39
71917;BME280;59793;46.506;6.674;2022-11-14T05:27:30;97109.97;;;11.27;72.78
71917;BME280;59793;46.506;6.674;2022-11-14T05:29:55;97108.09;;;11.27;72.45
71917;BME280;59793;46.506;6.674;2022-11-14T05:32:20;97102.81;;;11.27;71.52
71917;BME280;59793;46.506;6.674;2022-11-14T05:34:46;97095.19;;;11.22;69.96
71917;BME280;59793;46.506;6.674;2022-11-14T05:37:11;97089.91;;;11.22;68.41
71917;BME280;59793;46.506;6.674;2022-11-14T05:39:36;97095.88;;;11.19;66.30
71917;BME280;59793;46.506;6.674;2022-11-14T05:42:01;97097.97;;;11.29;66.30
71917;BME280;59793;46.506;6.674;2022-11-14T05:44:27;97091.94;;;11.29;65.69
71917;BME280;59793;46.506;6.674;2022-11-14T05:46:52;97089.72;;;11.31;66.70
71917;BME280;59793;46.506;6.674;2022-11-14T05:49:17;97104.69;;;11.42;65.66
71917;BME280;59793;46.506;6.674;2022-11-14T05:51:42;97097.00;;;11.53;64.68
71917;BME280;59793;46.506;6.674;2022-11-14T05:54:07;97098.13;;;11.52;65.26
71917;BME280;59793;46.506;6.674;2022-11-14T05:56:33;97106.88;;;11.56;66.35
71917;BME280;59793;46.506;6.674;2022-11-14T05:58:58;97103.94;;;11.61;64.35
71917;BME280;59793;46.506;6.674;2022-11-14T06:01:23;97102.81;;;11.62;65.69
71917;BME280;59793;46.506;6.674;2022-11-14T06:03:49;97111.94;;;11.65;66.71
71917;BME280;59793;46.506;6.674;2022-11-14T06:06:15;97106.66;;;11.65;65.76
71917;BME280;59793;46.506;6.674;2022-11-14T06:08:40;97097.91;;;11.61;66.71
71917;BME280;59793;46.506;6.674;2022-11-14T06:11:10;97106.66;;;11.65;66.46
71917;BME280;59793;46.506;6.674;2022-11-14T06:13:36;97108.91;;;11.63;65.49
71917;BME280;59793;46.506;6.674;2022-11-14T06:16:02;97106.81;;;11.72;65.20
71917;BME280;59793;46.506;6.674;2022-11-14T06:18:28;97108.59;;;11.84;65.84
71917;BME280;59793;46.506;6.674;2022-11-14T06:20:57;97115.03;;;11.86;66.43
71917;BME280;59793;46.506;6.674;2022-11-14T06:23:22;97122.28;;;11.89;66.25
71917;BME280;59793;46.506;6.674;2022-11-14T06:25:47;97113.06;;;11.83;65.93
71917;BME280;59793;46.506;6.674;2022-11-14T06:28:13;97109.75;;;11.86;65.03
71917;BME280;59793;46.506;6.674;2022-11-14T06:30:38;97116.50;;;11.84;66.20
71917;BME280;59793;46.506;6.674;2022-11-14T06:33:05;97112.91;;;11.76;65.77
71917;BME280;59793;46.506;6.674;2022-11-14T06:35:30;97129.63;;;11.80;65.30
71917;BME280;59793;46.506;6.674;2022-11-14T06:37:58;97120.56;;;11.81;66.21
71917;BME280;59793;46.506;6.674;2022-11-14T06:40:23;97126.63;;;11.82;65.70
71917;BME280;59793;46.506;6.674;2022-11-14T06:42:48;97119.91;;;11.84;66.08
71917;BME280;59793;46.506;6.674;2022-11-14T06:45:14;97125.75;;;11.93;65.29
71917;BME280;59793;46.506;6.674;2022-11-14T06:47:39;97136.09;;;12.02;64.62
71917;BME280;59793;46.506;6.674;2022-11-14T06:50:04;97129.78;;;12.07;64.51
71917;BME280;59793;46.506;6.674;2022-11-14T06:52:30;97141.72;;;12.01;64.91
71917;BME280;59793;46.506;6.674;2022-11-14T06:54:55;97142.16;;;12.03;65.54
71917;BME280;59793;46.506;6.674;2022-11-14T06:57:20;97136.44;;;12.01;65.36
71917;BME280;59793;46.506;6.674;2022-11-14T06:59:45;97151.25;;;12.05;65.84
71917;BME280;59793;46.506;6.674;2022-11-14T07:02:12;97148.41;;;12.14;65.06
71917;BME280;59793;46.506;6.674;2022-11-14T07:04:37;97146.66;;;12.22;65.15
71917;BME280;59793;46.506;6.674;2022-11-14T07:07:02;97150.56;;;12.28;65.26
71917;BME280;59793;46.506;6.674;2022-11-14T07:09:28;97151.59;;;12.23;66.10
71917;BME280;59793;46.506;6.674;2022-11-14T07:11:53;97155.91;;;12.12;66.18
71917;BME280;59793;46.506;6.674;2022-11-14T07:14:18;97159.03;;;11.98;67.65
71917;BME280;59793;46.506;6.674;2022-11-14T07:16:43;97160.06;;;11.93;68.28
71917;BME280;59793;46.506;6.674;2022-11-14T07:19:09;97154.88;;;11.81;68.06
71917;BME280;59793;46.506;6.674;2022-11-14T07:21:34;97153.19;;;11.73;68.07
71917;BME280;59793;46.506;6.674;2022-11-14T07:24:00;97157.31;;;11.70;67.96
71917;BME280;59793;46.506;6.674;2022-11-14T07:26:25;97156.13;;;11.68;68.36
71917;BME280;59793;46.506;6.674;2022-11-14T07:28:50;97161.91;;;11.73;67.96
71917;BME280;59793;46.506;6.674;2022-11-14T07:31:16;97160.84;;;11.78;67.92
71917;BME280;59793;46.506;6.674;2022-11-14T07:33:42;97161.28;;;11.80;67.87
71917;BME280;59793;46.506;6.674;2022-11-14T07:36:07;97164.78;;;11.84;67.83
71917;BME280;59793;46.506;6.674;2022-11-14T07:38:33;97163.38;;;11.90;67.83
71917;BME280;59793;46.506;6.674;2022-11-14T07:41:01;97166.88;;;11.94;67.22
71917;BME280;59793;46.506;6.674;2022-11-14T07:43:26;97170.75;;;12.01;66.90
71917;BME280;59793;46.506;6.674;2022-11-14T07:45:52;97170.66;;;12.13;66.14
71917;BME280;59793;46.506;6.674;2022-11-14T07:48:17;97172.59;;;12.16;66.66
71917;BME280;59793;46.506;6.674;2022-11-14T07:50:43;97182.03;;;12.17;66.74
71917;BME280;59793;46.506;6.674;2022-11-14T07:53:08;97177.88;;;12.16;66.83
71917;BME280;59793;46.506;6.674;2022-11-14T07:55:34;97181.22;;;12.13;67.41
71917;BME280;59793;46.506;6.674;2022-11-14T07:57:59;97182.59;;;12.07;67.17
71917;BME280;59793;46.506;6.674;2022-11-14T08:00:24;97183.13;;;11.96;67.23
71917;BME280;59793;46.506;6.674;2022-11-14T08:02:50;97184.25;;;11.95;67.44
71917;BME280;59793;46.506;6.674;2022-11-14T08:05:15;97188.84;;;11.99;66.57
71917;BME280;59793;46.506;6.674;2022-11-14T08:07:41;97188.84;;;11.99;67.32
71917;BME280;59793;46.506;6.674;2022-11-14T08:10:06;97191.19;;;12.04;67.26
71917;BME280;59793;46.506;6.674;2022-11-14T08:12:32;97195.38;;;12.05;66.73
71917;BME280;59793;46.506;6.674;2022-11-14T08:14:57;97191.97;;;12.04;66.20
71917;BME280;59793;46.506;6.674;2022-11-14T08:17:23;97186.28;;;12.02;65.81
71917;BME280;59793;46.506;6.674;2022-11-14T08:19:48;97185.53;;;12.02;66.32
71917;BME280;59793;46.506;6.674;2022-11-14T08:22:13;97179.44;;;12.01;66.40
71917;BME280;59793;46.506;6.674;2022-11-14T08:24:38;97178.69;;;12.01;66.30
71917;BME280;59793;46.506;6.674;2022-11-14T08:27:04;97175.50;;;12.11;65.41
71917;BME280;59793;46.506;6.674;2022-11-14T08:29:29;97185.38;;;12.14;65.06
71917;BME280;59793;46.506;6.674;2022-11-14T08:31:54;97180.09;;;12.14;65.96
71917;BME280;59793;46.506;6.674;2022-11-14T08:34:19;97184.13;;;12.27;65.94
71917;BME280;59793;46.506;6.674;2022-11-14T08:36:46;97189.69;;;12.22;65.91
71917;BME280;59793;46.506;6.674;2022-11-14T08:39:11;97187.19;;;12.29;66.08
71917;BME280;59793;46.506;6.674;2022-11-14T08:41:36;97188.88;;;12.37;65.05
71917;BME280;59793;46.506;6.674;2022-11-14T08:44:02;97192.59;;;12.36;64.66
71917;BME280;59793;46.506;6.674;2022-11-14T08:46:27;97187.31;;;12.36;64.45
71917;BME280;59793;46.506;6.674;2022-11-14T08:48:52;97191.91;;;12.39;64.62
71917;BME280;59793;46.506;6.674;2022-11-14T08:51:17;97189.13;;;12.32;64.56
71917;BME280;59793;46.506;6.674;2022-11-14T08:53:43;97184.97;;;12.31;64.22
71917;BME280;59793;46.506;6.674;2022-11-14T08:56:08;97186.97;;;12.38;64.37
71917;BME280;59793;46.506;6.674;2022-11-14T08:58:33;97198.66;;;12.37;63.94
71917;BME280;59793;46.506;6.674;2022-11-14T09:01:06;97200.94;;;12.38;64.39
71917;BME280;59793;46.506;6.674;2022-11-14T09:03:31;97207.91;;;12.47;64.13
71917;BME280;59793;46.506;6.674;2022-11-14T09:05:57;97204.84;;;12.44;64.18
71917;BME280;59793;46.506;6.674;2022-11-14T09:08:23;97203.81;;;12.49;63.89
71917;BME280;59793;46.506;6.674;2022-11-14T09:10:48;97194.94;;;12.61;63.38
71917;BME280;59793;46.506;6.674;2022-11-14T09:13:13;97205.81;;;12.56;64.09
71917;BME280;59793;46.506;6.674;2022-11-14T09:15:39;97212.91;;;12.52;64.04
71917;BME280;59793;46.506;6.674;2022-11-14T09:18:04;97211.94;;;12.60;63.83
71917;BME280;59793;46.506;6.674;2022-11-14T09:20:29;97215.00;;;12.62;63.64
71917;BME280;59793;46.506;6.674;2022-11-14T09:22:58;97204.91;;;12.67;63.28
71917;BME280;59793;46.506;6.674;2022-11-14T09:25:23;97210.25;;;12.71;62.83
71917;BME280;59793;46.506;6.674;2022-11-14T09:27:50;97212.88;;;12.71;63.36
71917;BME280;59793;46.506;6.674;2022-11-14T09:30:15;97213.59;;;12.68;63.08
71917;BME280;59793;46.506;6.674;2022-11-14T09:32:41;97220.28;;;12.62;63.31
71917;BME280;59793;46.506;6.674;2022-11-14T09:35:06;97224.16;;;12.68;63.29
71917;BME280;59793;46.506;6.674;2022-11-14T09:37:31;97224.03;;;12.61;63.45
71917;BME280;59793;46.506;6.674;2022-11-14T09:39:56;97229.44;;;12.68;63.43
71917;BME280;59793;46.506;6.674;2022-11-14T09:42:43;97224.88;;;12.65;63.06
71917;BME280;59793;46.506;6.674;2022-11-14T09:45:15;97227.16;;;12.66;62.21
71917;BME280;59793;46.506;6.674;2022-11-14T09:47:51;97230.50;;;12.63;63.11
71917;BME280;59793;46.506;6.674;2022-11-14T09:50:19;97231.56;;;12.59;62.91
71917;BME280;59793;46.506;6.674;2022-11-14T09:52:54;97229.44;;;12.68;63.32
71917;BME280;59793;46.506;6.674;2022-11-14T09:55:32;97231.47;;;12.75;62.79
71917;BME280;59793;46.506;6.674;2022-11-14T09:57:59;97228.81;;;12.75;63.33
71917;BME280;59793;46.506;6.674;2022-11-14T10:00:26;97228.59;;;12.83;62.74
71917;BME280;59793;46.506;6.674;2022-11-14T10:03:27;97222.91;;;12.81;62.35
71917;BME280;59793;46.506;6.674;2022-11-14T10:08:28;97228.25;;;12.85;62.03
71917;BME280;59793;46.506;6.674;2022-11-14T10:11:09;97228.38;;;12.92;62.34
71917;BME280;59793;46.506;6.674;2022-11-14T10:13:42;97222.88;;;13.01;62.89
71917;BME280;59793;46.506;6.674;2022-11-14T10:21:16;97231.16;;;13.22;64.04
71917;BME280;59793;46.506;6.674;2022-11-14T10:26:37;97239.66;;;13.31;65.78
71917;BME280;59793;46.506;6.674;2022-11-14T10:31:58;97232.81;;;13.07;61.45
71917;BME280;59793;46.506;6.674;2022-11-14T10:34:40;97227.72;;;12.99;61.61
71917;BME280;59793;46.506;6.674;2022-11-14T10:37:10;97240.41;;;12.89;61.65
71917;BME280;59793;46.506;6.674;2022-11-14T10:42:10;97220.16;;;12.55;62.73
71917;BME280;59793;46.506;6.674;2022-11-14T10:47:20;97233.63;;;12.69;62.09
71917;BME280;59793;46.506;6.674;2022-11-14T10:49:48;97236.28;;;12.69;61.15
71917;BME280;59793;46.506;6.674;2022-11-14T10:52:17;97232.44;;;12.66;61.44
71917;BME280;59793;46.506;6.674;2022-11-14T10:54:44;97224.03;;;12.61;62.04
71917;BME280;59793;46.506;6.674;2022-11-14T10:57:15;97226.81;;;12.49;61.86
71917;BME280;59793;46.506;6.674;2022-11-14T10:59:41;97228.41;;;12.53;61.27
71917;BME280;59793;46.506;6.674;2022-11-14T11:02:07;97229.03;;;12.47;61.85
71917;BME280;59793;46.506;6.674;2022-11-14T11:04:33;97231.69;;;12.47;61.44
71917;BME280;59793;46.506;6.674;2022-11-14T11:09:33;97201.03;;;12.42;61.75
71917;BME280;59793;46.506;6.674;2022-11-14T11:12:19;97223.69;;;12.43;61.15
71917;BME280;59793;46.506;6.674;2022-11-14T11:14:46;97216.38;;;12.56;60.62
71917;BME280;59793;46.506;6.674;2022-11-14T11:19:37;97219.50;;;12.61;60.95
71917;BME280;59793;46.506;6.674;2022-11-14T11:22:02;97195.72;;;12.61;61.13
71917;BME280;59793;46.506;6.674;2022-11-14T11:30:02;97227.66;;;12.53;61.74
71917;BME280;59793;46.506;6.674;2022-11-14T11:32:27;97215.25;;;12.57;61.83
71917;BME280;59793;46.506;6.674;2022-11-14T11:34:53;97214.06;;;12.54;62.20
71917;BME280;59793;46.506;6.674;2022-11-14T11:37:20;97218.47;;;12.47;61.70
71917;BME280;59793;46.506;6.674;2022-11-14T11:39:51;97219.09;;;12.40;62.20
71917;BME280;59793;46.506;6.674;2022-11-14T11:42:20;97200.06;;;12.31;62.26
71917;BME280;59793;46.506;6.674;2022-11-14T11:44:48;97216.97;;;12.26;62.92
71917;BME280;59793;46.506;6.674;2022-11-14T11:47:15;97235.44;;;12.26;63.41
71917;BME280;59793;46.506;6.674;2022-11-14T11:49:50;97237.13;;;12.34;62.84
71917;BME280;59793;46.506;6.674;2022-11-14T11:52:23;97228.63;;;12.25;63.39
71917;BME280;59793;46.506;6.674;2022-11-14T11:57:28;97214.72;;;12.28;64.04
71917;BME280;59793;46.506;6.674;2022-11-14T12:00:05;97217.09;;;12.33;63.42
71917;BME280;59793;46.506;6.674;2022-11-14T12:02:31;97207.91;;;12.47;63.49
71917;BME280;59793;46.506;6.674;2022-11-14T12:04:56;97213.31;;;12.54;62.47
71917;BME280;59793;46.506;6.674;2022-11-14T12:07:24;97214.88;;;12.55;62.02
71917;BME280;59793;46.506;6.674;2022-11-14T12:09:54;97212.78;;;12.44;62.83
71917;BME280;59793;46.506;6.674;2022-11-14T12:20:06;97218.28;;;12.55;63.91
71917;BME280;59793;46.506;6.674;2022-11-14T12:25:27;97216.09;;;12.80;63.13
71917;BME280;59793;46.506;6.674;2022-11-14T12:30:25;97224.53;;;12.89;62.76
71917;BME280;59793;46.506;6.674;2022-11-14T12:32:53;97223.84;;;12.92;61.83
71917;BME280;59793;46.506;6.674;2022-11-14T12:35:45;97230.63;;;12.90;62.05
71917;BME280;59793;46.506;6.674;2022-11-14T12:38:04;97214.75;;;12.90;62.53
71917;BME280;59793;46.506;6.674;2022-11-14T12:40:37;97220.81;;;12.90;62.82
71917;BME280;59793;46.506;6.674;2022-11-14T12:43:03;97213.88;;;13.05;62.78
71917;BME280;59793;46.506;6.674;2022-11-14T12:50:39;97213.19;;;13.08;62.32
71917;BME280;59793;46.506;6.674;2022-11-14T12:53:22;97209.31;;;13.25;61.93
71917;BME280;59793;46.506;6.674;2022-11-14T12:58:50;97203.91;;;13.41;60.76
71917;BME280;59793;46.506;6.674;2022-11-14T13:01:26;97201.13;;;13.57;60.10
71917;BME280;59793;46.506;6.674;2022-11-14T13:04:14;97204.59;;;14.18;58.69
71917;BME280;59793;46.506;6.674;2022-11-14T13:06:51;97200.44;;;14.50;57.25
71917;BME280;59793;46.506;6.674;2022-11-14T13:09:40;97193.00;;;14.63;56.19
71917;BME280;59793;46.506;6.674;2022-11-14T13:12:25;97187.78;;;14.70;56.21
71917;BME280;59793;46.506;6.674;2022-11-14T13:15:18;97199.84;;;14.64;56.05
71917;BME280;59793;46.506;6.674;2022-11-14T13:18:11;97188.97;;;14.43;57.05
71917;BME280;59793;46.506;6.674;2022-11-14T13:21:03;97172.16;;;14.62;56.01
71917;BME280;59793;46.506;6.674;2022-11-14T13:28:47;97156.59;;;18.08;45.89
71917;BME280;59793;46.506;6.674;2022-11-14T13:33:40;97157.22;;;20.55;40.06
71917;BME280;59793;46.506;6.674;2022-11-14T13:36:05;97154.91;;;21.54;37.66
71917;BME280;59793;46.506;6.674;2022-11-14T13:51:23;97143.19;;;19.41;41.03
71917;BME280;59793;46.506;6.674;2022-11-14T13:53:50;97148.06;;;19.04;41.81
71917;BME280;59793;46.506;6.674;2022-11-14T14:11:54;97128.31;;;21.83;36.06
71917;BME280;59793;46.506;6.674;2022-11-14T14:17:07;97123.09;;;22.52;34.70
71917;BME280;59793;46.506;6.674;2022-11-14T14:24:46;97120.94;;;19.51;40.12
71917;BME280;59793;46.506;6.674;2022-11-14T14:27:16;97113.72;;;17.49;45.99
71917;BME280;59793;46.506;6.674;2022-11-14T14:29:45;97121.72;;;16.59;48.50
71917;BME280;59793;46.506;6.674;2022-11-14T14:32:14;97130.00;;;16.18;49.47
71917;BME280;59793;46.506;6.674;2022-11-14T14:34:39;97118.66;;;16.50;49.27
71917;BME280;59793;46.506;6.674;2022-11-14T14:37:14;97121.34;;;17.50;47.31
71917;BME280;59793;46.506;6.674;2022-11-14T14:39:40;97109.16;;;17.60;46.69